Terminal Aerodrome Forecast
Issued by NWS

Current Version | Previous Version | Text Only | Print | Product List | Glossary On
Versions: 1 2 3 4 5 6 7 8 9 10 11 12 13 14 15 16 17 18 19 20 21 22 23 24 25 26
000
FTAK31 PANC 241731
TAFAAQ
TAF
PAAQ 241731Z 2418/2518 16007KT P6SM SCT050 BKN080
     FM250300 17007KT P6SM -SHRA BKN050
     FM250800 VRB03KT P6SM -RA SCT025 OVC040
     FM251200 VRB03KT 5SM -RA BR SCT015 OVC025=

USA.gov is the U.S. government's official web portal to all federal, state and local government web resources and services.